createdAt,value
2023-04-19T00:00:39.340Z,10.97
2023-04-19T00:03:10.590Z,11.00
2023-04-19T00:05:44.600Z,10.94
2023-04-19T00:08:15.023Z,10.93
2023-04-19T00:10:48.084Z,10.96
2023-04-19T00:13:19.063Z,10.94
2023-04-19T00:15:52.177Z,10.95
2023-04-19T00:18:22.538Z,10.95
2023-04-19T00:20:52.790Z,10.92
2023-04-19T00:23:23.096Z,10.91
2023-04-19T00:25:53.336Z,10.90
2023-04-19T00:28:23.770Z,10.85
2023-04-19T00:30:56.842Z,10.80
2023-04-19T00:33:27.424Z,10.84
2023-04-19T00:36:00.770Z,10.82
2023-04-19T00:38:31.127Z,10.80
2023-04-19T00:41:03.155Z,10.77
2023-04-19T00:43:33.588Z,10.78
2023-04-19T00:46:07.014Z,10.79
2023-04-19T00:48:38.232Z,10.79
2023-04-19T00:51:10.698Z,10.73
2023-04-19T00:53:41.464Z,10.68
2023-04-19T00:56:12.323Z,10.72
2023-04-19T00:58:42.865Z,10.70
2023-04-19T01:01:15.973Z,10.66
2023-04-19T01:03:46.422Z,10.62
2023-04-19T01:06:16.890Z,10.56
2023-04-19T01:08:47.303Z,10.59
2023-04-19T01:11:18.396Z,10.62
2023-04-19T01:13:48.836Z,10.62
2023-04-19T01:16:24.289Z,10.59
2023-04-19T01:18:54.696Z,10.57
2023-04-19T01:21:25.910Z,10.51
2023-04-19T01:23:58.840Z,10.49
2023-04-19T01:26:29.206Z,10.46
2023-04-19T01:29:02.687Z,10.42
2023-04-19T01:31:33.186Z,10.45
2023-04-19T01:34:03.634Z,10.43
2023-04-19T01:36:34.320Z,10.48
2023-04-19T01:39:07.405Z,10.47
2023-04-19T01:41:37.716Z,10.45
2023-04-19T01:44:08.128Z,10.50
2023-04-19T01:46:39.136Z,10.50
2023-04-19T01:49:09.752Z,10.49
2023-04-19T01:51:41.172Z,10.46
2023-04-19T01:54:14.407Z,10.45
2023-04-19T01:56:45.006Z,10.38
2023-04-19T01:59:15.385Z,10.36
2023-04-19T02:01:48.634Z,10.33
2023-04-19T02:04:19.270Z,10.37
2023-04-19T02:06:49.806Z,10.30
2023-04-19T02:09:22.818Z,10.32
2023-04-19T02:11:53.102Z,10.30
2023-04-19T02:14:25.338Z,10.27
2023-04-19T02:16:57.184Z,10.23
2023-04-19T02:19:27.648Z,10.24
2023-04-19T02:21:58.333Z,10.27
2023-04-19T02:24:31.394Z,10.18
2023-04-19T02:27:02.255Z,10.14
2023-04-19T02:29:35.216Z,10.13
2023-04-19T02:32:06.608Z,10.13
2023-04-19T02:34:37.805Z,10.03
2023-04-19T02:37:08.196Z,10.07
2023-04-19T02:39:42.822Z,10.07
2023-04-19T02:42:15.658Z,10.09
2023-04-19T02:44:46.020Z,10.00
2023-04-19T02:47:16.459Z,10.01
2023-04-19T02:49:48.500Z,9.99
2023-04-19T02:52:18.858Z,9.97
2023-04-19T02:54:51.712Z,9.94
2023-04-19T02:57:22.094Z,9.97
2023-04-19T02:59:52.706Z,9.97
2023-04-19T03:02:23.175Z,9.89
2023-04-19T03:04:55.635Z,9.87
2023-04-19T03:07:26.454Z,9.84
2023-04-19T03:09:59.378Z,9.79
2023-04-19T03:12:29.696Z,9.75
2023-04-19T03:14:59.948Z,9.74
2023-04-19T03:17:30.418Z,9.78
2023-04-19T03:20:05.011Z,9.76
2023-04-19T03:22:35.427Z,9.68
2023-04-19T03:25:12.713Z,9.67
2023-04-19T03:27:47.612Z,9.66
2023-04-19T03:30:20.411Z,9.61
2023-04-19T03:32:52.379Z,9.58
2023-04-19T03:35:26.514Z,9.52
2023-04-19T03:37:59.601Z,9.54
2023-04-19T03:40:33.371Z,9.49
2023-04-19T03:43:04.102Z,9.48
2023-04-19T03:45:37.583Z,9.40
2023-04-19T03:48:11.190Z,9.43
2023-04-19T03:50:41.454Z,9.47
2023-04-19T03:53:15.083Z,9.41
2023-04-19T03:55:48.325Z,9.39
2023-04-19T03:58:18.747Z,9.38
2023-04-19T04:01:02.988Z,9.29
2023-04-19T04:03:34.095Z,9.28
2023-04-19T04:06:05.914Z,9.23
2023-04-19T04:08:36.153Z,9.25
2023-04-19T04:11:09.146Z,9.17
2023-04-19T04:13:39.789Z,9.14
2023-04-19T04:16:15.928Z,9.12
2023-04-19T04:18:46.315Z,9.07
2023-04-19T04:21:18.384Z,9.01
2023-04-19T04:23:50.509Z,9.01
2023-04-19T04:26:34.240Z,9.00
2023-04-19T04:29:23.140Z,8.97
2023-04-19T04:31:57.048Z,8.94
2023-04-19T04:34:33.326Z,8.97
2023-04-19T04:37:12.004Z,8.97
2023-04-19T04:39:42.433Z,8.94
2023-04-19T04:42:16.686Z,8.95
2023-04-19T04:44:47.584Z,9.03
2023-04-19T04:47:18.785Z,8.93
2023-04-19T04:49:55.278Z,8.94
2023-04-19T04:52:25.637Z,8.94
2023-04-19T04:55:04.310Z,8.96
2023-04-19T04:57:40.778Z,8.96
2023-04-19T05:00:15.889Z,8.94
2023-04-19T05:02:56.028Z,8.86
2023-04-19T05:05:27.320Z,8.81
2023-04-19T05:07:59.406Z,8.83
2023-04-19T05:10:29.738Z,8.77
2023-04-19T05:13:03.854Z,8.74
2023-04-19T05:15:35.333Z,8.70
2023-04-19T05:18:07.341Z,8.67
2023-04-19T05:20:37.689Z,8.69
2023-04-19T05:23:19.283Z,8.68
2023-04-19T05:25:49.516Z,8.65
2023-04-19T05:28:27.053Z,8.62
2023-04-19T05:31:15.419Z,8.62
2023-04-19T05:33:59.297Z,8.56
2023-04-19T05:36:32.484Z,8.55
2023-04-19T05:39:03.329Z,8.60
2023-04-19T05:41:34.212Z,8.61
2023-04-19T05:44:07.403Z,8.55
2023-04-19T05:46:37.727Z,8.50
2023-04-19T05:49:13.210Z,8.47
2023-04-19T05:52:12.788Z,8.48
2023-04-19T05:54:48.953Z,8.51
2023-04-19T05:57:19.250Z,8.49
2023-04-19T05:59:52.220Z,8.51
2023-04-19T06:02:28.318Z,8.58
2023-04-19T06:05:02.664Z,8.59
2023-04-19T06:07:43.320Z,8.52
2023-04-19T06:10:21.015Z,8.52
2023-04-19T06:12:51.231Z,8.53
2023-04-19T06:15:26.172Z,8.53
2023-04-19T06:17:57.520Z,8.66
2023-04-19T06:20:29.686Z,8.72
2023-04-19T06:22:59.967Z,8.95
2023-04-19T06:25:30.321Z,9.12
2023-04-19T06:28:00.708Z,9.30
2023-04-19T06:30:33.864Z,9.56
2023-04-19T06:33:06.045Z,9.73
2023-04-19T06:35:36.574Z,9.73
2023-04-19T06:38:07.504Z,9.77
2023-04-19T06:40:37.888Z,9.96
2023-04-19T06:43:08.091Z,10.09
2023-04-19T06:45:40.979Z,10.01
2023-04-19T06:48:11.275Z,9.95
2023-04-19T06:50:41.679Z,9.84
2023-04-19T06:53:11.987Z,9.87
2023-04-19T06:55:42.392Z,9.97
2023-04-19T06:58:12.602Z,10.32
2023-04-19T07:00:45.441Z,10.70
2023-04-19T07:03:15.806Z,10.77
2023-04-19T07:05:46.516Z,10.80
2023-04-19T07:08:17.107Z,10.86
2023-04-19T07:10:47.395Z,10.96
2023-04-19T07:13:17.575Z,11.14
2023-04-19T07:15:50.686Z,11.19
2023-04-19T07:18:21.006Z,11.28
2023-04-19T07:20:51.471Z,11.15
2023-04-19T07:23:23.732Z,11.14
2023-04-19T07:25:53.890Z,11.36
2023-04-19T07:28:24.153Z,11.82
2023-04-19T07:30:57.173Z,12.00
2023-04-19T07:33:28.468Z,12.05
2023-04-19T07:35:59.121Z,12.15
2023-04-19T07:38:29.625Z,12.81
2023-04-19T07:40:59.844Z,12.95
2023-04-19T07:43:30.420Z,13.39
2023-04-19T07:46:03.327Z,13.50
2023-04-19T07:48:35.867Z,14.00
2023-04-19T07:51:12.308Z,14.22
2023-04-19T07:53:43.617Z,14.48
2023-04-19T07:56:15.702Z,14.73
2023-04-19T07:58:50.854Z,14.92
2023-04-19T08:01:31.362Z,15.28
2023-04-19T08:04:03.160Z,15.66
2023-04-19T08:06:38.180Z,16.06
2023-04-19T08:09:08.791Z,16.61
2023-04-19T08:11:39.100Z,17.08
2023-04-19T08:14:18.544Z,17.78
2023-04-19T08:19:28.310Z,19.48
2023-04-19T08:21:58.781Z,20.49
2023-04-19T08:24:35.940Z,21.32
2023-04-19T08:27:06.237Z,22.25
2023-04-19T08:29:36.559Z,22.83
2023-04-19T08:32:12.349Z,23.42
2023-04-19T08:34:43.111Z,24.04
2023-04-19T08:37:13.410Z,24.48
2023-04-19T08:39:43.737Z,24.92
2023-04-19T08:45:06.401Z,24.79
2023-04-19T08:48:00.642Z,25.22
2023-04-19T08:50:40.432Z,25.65
2023-04-19T08:53:25.023Z,25.89
2023-04-19T09:01:19.854Z,25.25
2023-04-19T09:04:17.126Z,25.57
2023-04-19T09:06:57.483Z,25.98
2023-04-19T09:09:45.523Z,26.22
2023-04-19T09:12:22.388Z,26.09
2023-04-19T09:17:27.675Z,25.96
2023-04-19T09:20:01.436Z,26.12
2023-04-19T09:22:31.850Z,26.54
2023-04-19T09:25:37.351Z,26.62
2023-04-19T09:27:53.533Z,26.38
2023-04-19T09:30:33.978Z,26.45
2023-04-19T09:33:09.063Z,26.77
2023-04-19T09:35:48.572Z,26.17
2023-04-19T09:38:19.356Z,25.81
2023-04-19T09:40:51.884Z,25.59
2023-04-19T09:43:55.781Z,25.56
2023-04-19T09:46:39.297Z,25.82
2023-04-19T09:49:27.879Z,24.36
2023-04-19T09:52:11.080Z,25.23
2023-04-19T09:54:44.011Z,25.89
2023-04-19T09:57:14.361Z,26.15
2023-04-19T09:59:46.836Z,26.37
2023-04-19T10:02:18.312Z,24.73
2023-04-19T10:05:03.285Z,22.84
2023-04-19T10:07:45.811Z,21.41
2023-04-19T10:10:22.429Z,20.94
2023-04-19T10:13:18.030Z,20.51
2023-04-19T10:15:53.819Z,20.99
2023-04-19T10:18:41.584Z,22.32
2023-04-19T10:21:14.192Z,21.55
2023-04-19T10:23:47.369Z,19.86
2023-04-19T10:26:17.582Z,20.96
2023-04-19T10:28:47.965Z,21.99
2023-04-19T10:31:19.525Z,20.72
2023-04-19T10:33:55.480Z,19.38
2023-04-19T10:36:26.371Z,18.55
2023-04-19T10:38:59.416Z,18.91
2023-04-19T10:42:02.314Z,19.84
2023-04-19T10:44:33.105Z,19.39
2023-04-19T10:47:03.348Z,18.83
2023-04-19T10:49:33.581Z,19.34
2023-04-19T10:52:04.946Z,20.74
2023-04-19T10:54:37.996Z,21.73
2023-04-19T10:57:10.405Z,22.32
2023-04-19T10:59:43.172Z,23.58
2023-04-19T11:02:33.010Z,24.21
2023-04-19T11:05:07.006Z,24.67
2023-04-19T11:07:46.579Z,25.37
2023-04-19T11:10:31.364Z,25.90
2023-04-19T11:13:06.631Z,24.23
2023-04-19T11:15:38.557Z,22.55
2023-04-19T11:18:13.033Z,23.31
2023-04-19T11:20:46.194Z,25.00
2023-04-19T11:23:22.125Z,26.02
2023-04-19T11:25:57.230Z,26.85
2023-04-19T11:28:28.785Z,26.99
2023-04-19T11:31:01.410Z,25.83
2023-04-19T11:33:36.497Z,23.82
2023-04-19T11:36:07.383Z,24.04
2023-04-19T11:38:40.759Z,26.12
2023-04-19T11:41:13.940Z,26.49
2023-04-19T11:43:45.512Z,27.60
2023-04-19T11:46:19.566Z,28.41
2023-04-19T11:48:58.901Z,29.07
2023-04-19T11:51:30.192Z,29.36
2023-04-19T11:54:03.350Z,27.44
2023-04-19T11:56:39.394Z,25.53
2023-04-19T11:59:12.570Z,24.01
2023-04-19T12:01:44.477Z,23.24
2023-04-19T12:04:14.919Z,23.92
2023-04-19T12:06:45.697Z,23.02
2023-04-19T12:09:15.978Z,21.92
2023-04-19T12:11:53.104Z,20.92
2023-04-19T12:14:26.897Z,19.93
2023-04-19T12:17:14.040Z,18.89
2023-04-19T12:19:49.066Z,17.88
2023-04-19T12:22:24.461Z,17.52
2023-04-19T12:24:56.127Z,17.56
2023-04-19T12:27:28.960Z,17.29
2023-04-19T12:29:59.491Z,19.19
2023-04-19T12:32:29.809Z,21.86
2023-04-19T12:35:00.099Z,23.60
2023-04-19T12:37:30.331Z,24.98
2023-04-19T12:40:06.218Z,25.66
2023-04-19T12:42:41.673Z,22.80
2023-04-19T12:45:15.863Z,21.62
2023-04-19T12:47:52.063Z,23.78
2023-04-19T12:50:22.824Z,24.07
2023-04-19T12:52:54.029Z,23.79
2023-04-19T12:55:24.522Z,22.01
2023-04-19T12:58:00.546Z,20.81
2023-04-19T13:00:33.793Z,19.74
2023-04-19T13:03:04.291Z,18.82
2023-04-19T13:05:37.425Z,18.08
2023-04-19T13:08:08.424Z,17.49
2023-04-19T13:10:38.845Z,17.72
2023-04-19T13:13:11.874Z,16.97
2023-04-19T13:15:42.642Z,16.15
2023-04-19T13:18:16.036Z,15.48
2023-04-19T13:20:46.267Z,15.12
2023-04-19T13:23:16.529Z,14.82
2023-04-19T13:25:46.785Z,14.58
2023-04-19T13:28:22.422Z,14.43
2023-04-19T13:30:52.748Z,14.42
2023-04-19T13:33:23.022Z,14.42
2023-04-19T13:35:53.326Z,14.51
2023-04-19T13:38:23.624Z,14.75
2023-04-19T13:40:53.965Z,16.31
2023-04-19T13:43:26.951Z,19.08
2023-04-19T13:45:57.507Z,20.44
2023-04-19T13:48:29.110Z,22.23
2023-04-19T13:51:07.828Z,23.27
2023-04-19T13:53:38.023Z,23.99
2023-04-19T13:56:12.366Z,24.53
2023-04-19T13:58:45.247Z,25.28
2023-04-19T14:01:15.771Z,25.53
2023-04-19T14:03:46.193Z,24.23
2023-04-19T14:06:17.184Z,22.52
2023-04-19T14:08:49.032Z,21.24
2023-04-19T14:11:25.405Z,19.97
2023-04-19T14:13:59.408Z,18.78
2023-04-19T14:16:29.838Z,17.68
2023-04-19T14:19:01.134Z,16.92
2023-04-19T14:21:31.870Z,16.25
2023-04-19T14:24:02.457Z,15.81
2023-04-19T14:26:32.670Z,15.50
2023-04-19T14:29:06.367Z,15.33
2023-04-19T14:31:36.647Z,15.76
2023-04-19T14:34:07.099Z,17.62
2023-04-19T14:36:37.321Z,18.31
2023-04-19T14:39:08.701Z,17.29
2023-04-19T14:41:38.943Z,16.48
2023-04-19T14:44:11.895Z,16.25
2023-04-19T14:46:42.160Z,16.19
2023-04-19T14:49:15.175Z,18.34
2023-04-19T14:51:48.720Z,18.83
2023-04-19T14:54:19.437Z,17.44
2023-04-19T14:56:49.808Z,17.87
2023-04-19T14:59:22.667Z,19.08
2023-04-19T15:01:53.037Z,18.30
2023-04-19T15:04:24.454Z,17.37
2023-04-19T15:06:54.864Z,16.98
2023-04-19T15:09:25.219Z,15.92
2023-04-19T15:11:55.593Z,15.27
2023-04-19T15:14:28.418Z,14.83
2023-04-19T15:16:58.626Z,14.42
2023-04-19T15:19:29.965Z,14.10
2023-04-19T15:22:00.419Z,13.91
2023-04-19T15:24:30.842Z,13.74
2023-04-19T15:27:01.833Z,13.38
2023-04-19T15:29:34.963Z,13.10
2023-04-19T15:32:05.558Z,12.86
2023-04-19T15:34:36.334Z,12.67
2023-04-19T15:37:06.752Z,12.61
2023-04-19T15:39:37.020Z,12.61
2023-04-19T15:42:07.345Z,12.52
2023-04-19T15:44:42.729Z,12.41
2023-04-19T15:47:14.324Z,12.31
2023-04-19T15:49:44.550Z,12.22
2023-04-19T15:52:14.741Z,12.18
2023-04-19T15:54:44.993Z,12.18
2023-04-19T15:57:15.477Z,12.10
2023-04-19T15:59:48.467Z,12.11
2023-04-19T16:02:18.977Z,12.02
2023-04-19T16:04:50.457Z,11.86
2023-04-19T16:07:20.836Z,11.89
2023-04-19T16:09:51.212Z,11.88
2023-04-19T16:12:21.514Z,11.84
2023-04-19T16:14:54.586Z,11.79
2023-04-19T16:17:24.915Z,11.80
2023-04-19T16:19:55.401Z,11.58
2023-04-19T16:22:25.678Z,11.40
2023-04-19T16:24:56.007Z,11.30
2023-04-19T16:27:27.399Z,11.13
2023-04-19T16:30:00.252Z,10.92
2023-04-19T16:32:30.680Z,10.87
2023-04-19T16:35:00.983Z,10.84
2023-04-19T16:37:31.361Z,10.80
2023-04-19T16:40:01.681Z,10.82
2023-04-19T16:42:31.911Z,10.82
2023-04-19T16:45:04.883Z,10.84
2023-04-19T16:47:35.523Z,10.84
2023-04-19T16:50:06.704Z,10.81
2023-04-19T16:52:39.082Z,10.77
2023-04-19T16:55:10.385Z,10.78
2023-04-19T16:57:40.811Z,10.79
2023-04-19T17:00:15.287Z,10.65
2023-04-19T17:02:45.687Z,10.57
2023-04-19T17:05:16.591Z,10.49
2023-04-19T17:07:46.951Z,10.46
2023-04-19T17:10:17.279Z,10.31
2023-04-19T17:12:47.581Z,10.23
2023-04-19T17:15:20.782Z,10.18
2023-04-19T17:17:51.097Z,10.16
2023-04-19T17:20:21.648Z,10.14
2023-04-19T17:22:51.979Z,10.04
2023-04-19T17:25:22.504Z,9.97
2023-04-19T17:27:52.868Z,9.87
2023-04-19T17:30:26.279Z,9.79
2023-04-19T17:32:56.561Z,9.76
2023-04-19T17:35:27.032Z,9.73
2023-04-19T17:37:57.265Z,9.59
2023-04-19T17:40:29.242Z,9.54
2023-04-19T17:43:00.010Z,9.50
2023-04-19T17:45:32.936Z,9.52
2023-04-19T17:48:03.279Z,9.54
2023-04-19T17:50:33.550Z,9.55
2023-04-19T17:53:03.765Z,9.59
2023-04-19T17:55:34.137Z,9.62
2023-04-19T17:58:06.338Z,9.60
2023-04-19T18:00:39.249Z,9.62
2023-04-19T18:03:11.216Z,9.60
2023-04-19T18:05:41.745Z,9.55
2023-04-19T18:08:13.672Z,9.50
2023-04-19T18:10:44.015Z,9.52
2023-04-19T18:13:14.236Z,9.44
2023-04-19T18:15:47.160Z,9.47
2023-04-19T18:18:17.429Z,9.40
2023-04-19T18:20:47.764Z,9.41
2023-04-19T18:23:18.223Z,9.41
2023-04-19T18:25:55.921Z,9.44
2023-04-19T18:28:26.147Z,9.45
2023-04-19T18:30:59.029Z,9.49
2023-04-19T18:33:29.220Z,9.41
2023-04-19T18:35:59.418Z,9.46
2023-04-19T18:38:29.681Z,9.52
2023-04-19T18:41:00.109Z,9.56
2023-04-19T18:43:31.657Z,9.54
2023-04-19T18:46:04.842Z,9.57
2023-04-19T18:48:35.072Z,9.60
2023-04-19T18:51:07.412Z,9.62
2023-04-19T18:53:37.611Z,9.59
2023-04-19T18:56:09.734Z,9.57
2023-04-19T18:58:40.039Z,9.54
2023-04-19T19:01:13.521Z,9.58
2023-04-19T19:06:17.173Z,9.51
2023-04-19T19:08:49.897Z,9.53
2023-04-19T19:11:46.986Z,9.52
2023-04-19T19:14:10.741Z,9.55
2023-04-19T19:16:51.492Z,9.55
2023-04-19T19:19:22.877Z,9.58
2023-04-19T19:21:53.150Z,9.54
2023-04-19T19:24:25.825Z,9.55
2023-04-19T19:26:56.265Z,9.54
2023-04-19T19:29:26.477Z,9.59
2023-04-19T19:32:00.873Z,9.58
2023-04-19T19:34:33.606Z,9.56
2023-04-19T19:37:08.312Z,9.56
2023-04-19T19:39:38.705Z,9.58
2023-04-19T19:42:09.125Z,9.61
2023-04-19T19:44:39.397Z,9.59
2023-04-19T19:47:12.444Z,9.62
2023-04-19T19:52:16.643Z,9.55
2023-04-19T19:54:47.138Z,9.52
2023-04-19T19:59:56.050Z,9.53
2023-04-19T20:02:33.643Z,9.55
2023-04-19T20:05:04.820Z,9.53
2023-04-19T20:08:00.420Z,9.51
2023-04-19T20:10:31.110Z,9.49
2023-04-19T20:13:01.733Z,9.45
2023-04-19T20:15:32.672Z,9.48
2023-04-19T20:18:05.671Z,9.44
2023-04-19T20:20:36.042Z,9.48
2023-04-19T20:23:06.314Z,9.49
2023-04-19T20:25:36.616Z,9.50
2023-04-19T20:28:07.302Z,9.50
2023-04-19T20:30:37.662Z,9.46
2023-04-19T20:33:10.739Z,9.48
2023-04-19T20:35:42.258Z,9.48
2023-04-19T20:38:13.006Z,9.49
2023-04-19T20:40:44.326Z,9.47
2023-04-19T20:43:16.314Z,9.44
2023-04-19T20:45:47.485Z,9.43
2023-04-19T20:48:20.790Z,9.47
2023-04-19T20:50:51.046Z,9.48
2023-04-19T20:53:21.444Z,9.42
2023-04-19T20:55:51.696Z,9.39
2023-04-19T20:58:22.040Z,9.30
2023-04-19T21:00:52.969Z,9.24
2023-04-19T21:03:26.012Z,9.15
2023-04-19T21:05:56.393Z,9.12
2023-04-19T21:08:26.903Z,9.07
2023-04-19T21:10:57.270Z,9.04
2023-04-19T21:13:27.591Z,8.98
2023-04-19T21:15:57.854Z,8.93
2023-04-19T21:18:31.245Z,8.89
2023-04-19T21:21:01.852Z,8.92
2023-04-19T21:23:32.190Z,8.94
2023-04-19T21:26:04.453Z,8.94
2023-04-19T21:28:37.755Z,8.98
2023-04-19T21:31:08.128Z,8.98
2023-04-19T21:33:41.154Z,9.04
2023-04-19T21:36:14.845Z,9.08
2023-04-19T21:38:45.120Z,9.07
2023-04-19T21:41:15.406Z,9.10
2023-04-19T21:43:45.649Z,9.09
2023-04-19T21:46:16.017Z,9.09
2023-04-19T21:48:49.053Z,9.11
2023-04-19T21:51:20.334Z,9.14
2023-04-19T21:53:50.690Z,9.13
2023-04-19T21:56:21.028Z,9.17
2023-04-19T21:58:51.240Z,9.19
2023-04-19T22:01:21.522Z,9.17
2023-04-19T22:03:54.702Z,9.17
2023-04-19T22:06:25.249Z,9.15
2023-04-19T22:08:56.848Z,9.15
2023-04-19T22:11:29.244Z,9.13
2023-04-19T22:13:59.767Z,9.18
2023-04-19T22:16:30.508Z,9.13
2023-04-19T22:19:03.517Z,9.13
2023-04-19T22:21:34.019Z,9.08
2023-04-19T22:24:04.891Z,9.08
2023-04-19T22:26:36.391Z,9.04
2023-04-19T22:29:06.770Z,9.05
2023-04-19T22:31:37.048Z,9.09
2023-04-19T22:34:09.966Z,9.10
2023-04-19T22:36:40.237Z,9.13
2023-04-19T22:39:10.502Z,9.16
2023-04-19T22:41:40.839Z,9.17
2023-04-19T22:44:11.237Z,9.15
2023-04-19T22:46:41.543Z,9.14
2023-04-19T22:49:14.815Z,9.15
2023-04-19T22:51:45.407Z,9.13
2023-04-19T22:54:15.757Z,9.11
2023-04-19T22:56:46.039Z,9.12
2023-04-19T22:59:17.113Z,9.13
2023-04-19T23:01:47.666Z,9.13
2023-04-19T23:04:20.894Z,9.12
2023-04-19T23:06:51.466Z,9.14
2023-04-19T23:09:22.142Z,9.10
2023-04-19T23:11:52.533Z,9.08
2023-04-19T23:14:24.898Z,9.10
2023-04-19T23:16:57.393Z,9.05
2023-04-19T23:19:32.992Z,9.03
2023-04-19T23:22:03.366Z,9.01
2023-04-19T23:24:33.593Z,8.99
2023-04-19T23:27:03.940Z,8.99
2023-04-19T23:29:34.291Z,9.00
2023-04-19T23:32:04.749Z,9.01
2023-04-19T23:34:38.014Z,9.02
2023-04-19T23:37:09.122Z,9.01
2023-04-19T23:39:39.393Z,9.00
2023-04-19T23:42:11.575Z,8.99
2023-04-19T23:44:43.917Z,8.92
2023-04-19T23:47:14.482Z,8.86
2023-04-19T23:49:47.514Z,8.87
2023-04-19T23:52:18.448Z,8.90
2023-04-19T23:54:48.788Z,8.92
2023-04-19T23:57:19.069Z,8.89
2023-04-19T23:59:49.348Z,8.86
